sensor_id;sensor_type;location;lat;lon;timestamp;P1;durP1;ratioP1;P2;durP2;ratioP2
549;SDS011;20066;48.764;9.176;2022-11-20T00:00:54;5.50;;;3.35;;
549;SDS011;20066;48.764;9.176;2022-11-20T00:03:22;7.60;;;4.15;;
549;SDS011;20066;48.764;9.176;2022-11-20T00:05:53;6.00;;;3.50;;
549;SDS011;20066;48.764;9.176;2022-11-20T00:08:20;6.65;;;4.03;;
549;SDS011;20066;48.764;9.176;2022-11-20T00:10:48;6.60;;;4.03;;
549;SDS011;20066;48.764;9.176;2022-11-20T00:13:16;6.38;;;3.70;;
549;SDS011;20066;48.764;9.176;2022-11-20T00:15:45;6.55;;;4.00;;
549;SDS011;20066;48.764;9.176;2022-11-20T00:18:12;6.60;;;3.88;;
549;SDS011;20066;48.764;9.176;2022-11-20T00:20:40;7.03;;;3.22;;
549;SDS011;20066;48.764;9.176;2022-11-20T00:23:08;6.75;;;3.75;;
549;SDS011;20066;48.764;9.176;2022-11-20T00:25:36;7.75;;;3.13;;
549;SDS011;20066;48.764;9.176;2022-11-20T00:28:03;5.70;;;3.70;;
549;SDS011;20066;48.764;9.176;2022-11-20T00:30:31;5.78;;;3.25;;
549;SDS011;20066;48.764;9.176;2022-11-20T00:33:00;5.70;;;3.20;;
549;SDS011;20066;48.764;9.176;2022-11-20T00:35:28;5.15;;;3.50;;
549;SDS011;20066;48.764;9.176;2022-11-20T00:37:57;6.28;;;3.20;;
549;SDS011;20066;48.764;9.176;2022-11-20T00:40:24;7.38;;;3.90;;
549;SDS011;20066;48.764;9.176;2022-11-20T00:42:52;6.68;;;3.67;;
549;SDS011;20066;48.764;9.176;2022-11-20T00:45:20;8.35;;;3.00;;
549;SDS011;20066;48.764;9.176;2022-11-20T00:47:48;5.28;;;3.13;;
549;SDS011;20066;48.764;9.176;2022-11-20T00:50:17;5.65;;;3.30;;
549;SDS011;20066;48.764;9.176;2022-11-20T00:52:44;5.50;;;3.17;;
549;SDS011;20066;48.764;9.176;2022-11-20T00:55:12;10.15;;;3.20;;
549;SDS011;20066;48.764;9.176;2022-11-20T00:57:40;7.70;;;3.33;;
549;SDS011;20066;48.764;9.176;2022-11-20T01:00:08;5.47;;;3.13;;
549;SDS011;20066;48.764;9.176;2022-11-20T01:02:36;5.70;;;3.25;;
549;SDS011;20066;48.764;9.176;2022-11-20T01:05:04;6.38;;;3.20;;
549;SDS011;20066;48.764;9.176;2022-11-20T01:07:33;6.22;;;2.95;;
549;SDS011;20066;48.764;9.176;2022-11-20T01:10:01;4.63;;;2.75;;
549;SDS011;20066;48.764;9.176;2022-11-20T01:12:29;6.53;;;3.05;;
549;SDS011;20066;48.764;9.176;2022-11-20T01:14:57;4.68;;;2.97;;
549;SDS011;20066;48.764;9.176;2022-11-20T01:17:24;4.75;;;3.00;;
549;SDS011;20066;48.764;9.176;2022-11-20T01:19:52;7.72;;;3.55;;
549;SDS011;20066;48.764;9.176;2022-11-20T01:22:20;5.63;;;2.92;;
549;SDS011;20066;48.764;9.176;2022-11-20T01:24:49;4.13;;;2.80;;
549;SDS011;20066;48.764;9.176;2022-11-20T01:27:16;3.83;;;2.50;;
549;SDS011;20066;48.764;9.176;2022-11-20T01:29:44;5.30;;;2.72;;
549;SDS011;20066;48.764;9.176;2022-11-20T01:32:12;10.02;;;2.83;;
549;SDS011;20066;48.764;9.176;2022-11-20T01:34:40;3.88;;;2.20;;
549;SDS011;20066;48.764;9.176;2022-11-20T01:37:07;4.97;;;2.65;;
549;SDS011;20066;48.764;9.176;2022-11-20T01:39:35;3.33;;;2.35;;
549;SDS011;20066;48.764;9.176;2022-11-20T01:42:04;6.00;;;2.95;;
549;SDS011;20066;48.764;9.176;2022-11-20T01:44:51;5.30;;;2.45;;
549;SDS011;20066;48.764;9.176;2022-11-20T01:47:21;4.05;;;3.03;;
549;SDS011;20066;48.764;9.176;2022-11-20T01:49:55;4.15;;;2.45;;
549;SDS011;20066;48.764;9.176;2022-11-20T01:52:27;6.55;;;2.70;;
549;SDS011;20066;48.764;9.176;2022-11-20T01:55:02;5.63;;;2.65;;
549;SDS011;20066;48.764;9.176;2022-11-20T01:57:34;5.13;;;3.20;;
549;SDS011;20066;48.764;9.176;2022-11-20T02:00:04;6.05;;;3.22;;
549;SDS011;20066;48.764;9.176;2022-11-20T02:02:34;6.38;;;3.28;;
549;SDS011;20066;48.764;9.176;2022-11-20T02:05:04;5.88;;;3.45;;
549;SDS011;20066;48.764;9.176;2022-11-20T02:07:42;6.65;;;2.92;;
549;SDS011;20066;48.764;9.176;2022-11-20T02:10:11;4.53;;;2.80;;
549;SDS011;20066;48.764;9.176;2022-11-20T02:12:40;5.05;;;2.78;;
549;SDS011;20066;48.764;9.176;2022-11-20T02:15:25;5.32;;;3.35;;
549;SDS011;20066;48.764;9.176;2022-11-20T02:17:55;6.95;;;3.90;;
549;SDS011;20066;48.764;9.176;2022-11-20T02:20:23;4.55;;;3.30;;
549;SDS011;20066;48.764;9.176;2022-11-20T02:22:53;5.55;;;2.92;;
549;SDS011;20066;48.764;9.176;2022-11-20T02:25:25;6.68;;;2.97;;
549;SDS011;20066;48.764;9.176;2022-11-20T02:27:55;5.50;;;3.00;;
549;SDS011;20066;48.764;9.176;2022-11-20T02:30:23;7.75;;;3.10;;
549;SDS011;20066;48.764;9.176;2022-11-20T02:32:51;5.45;;;3.15;;
549;SDS011;20066;48.764;9.176;2022-11-20T02:35:39;4.70;;;2.95;;
549;SDS011;20066;48.764;9.176;2022-11-20T02:38:11;5.47;;;3.50;;
549;SDS011;20066;48.764;9.176;2022-11-20T02:40:40;5.05;;;3.40;;
549;SDS011;20066;48.764;9.176;2022-11-20T02:43:08;6.68;;;3.25;;
549;SDS011;20066;48.764;9.176;2022-11-20T02:45:36;6.05;;;2.75;;
549;SDS011;20066;48.764;9.176;2022-11-20T02:48:05;6.63;;;3.00;;
549;SDS011;20066;48.764;9.176;2022-11-20T02:50:33;5.43;;;3.30;;
549;SDS011;20066;48.764;9.176;2022-11-20T02:53:03;5.20;;;2.97;;
549;SDS011;20066;48.764;9.176;2022-11-20T02:55:30;5.93;;;3.30;;
549;SDS011;20066;48.764;9.176;2022-11-20T02:58:00;7.30;;;3.58;;
549;SDS011;20066;48.764;9.176;2022-11-20T03:00:27;8.52;;;3.20;;
549;SDS011;20066;48.764;9.176;2022-11-20T03:02:55;8.98;;;3.50;;
549;SDS011;20066;48.764;9.176;2022-11-20T03:05:23;6.53;;;3.28;;
549;SDS011;20066;48.764;9.176;2022-11-20T03:07:50;5.45;;;3.35;;
549;SDS011;20066;48.764;9.176;2022-11-20T03:10:18;5.07;;;2.85;;
549;SDS011;20066;48.764;9.176;2022-11-20T03:12:46;6.93;;;3.72;;
549;SDS011;20066;48.764;9.176;2022-11-20T03:15:15;5.68;;;3.42;;
549;SDS011;20066;48.764;9.176;2022-11-20T03:17:43;7.65;;;3.17;;
549;SDS011;20066;48.764;9.176;2022-11-20T03:20:11;6.10;;;3.72;;
549;SDS011;20066;48.764;9.176;2022-11-20T03:22:39;7.45;;;3.60;;
549;SDS011;20066;48.764;9.176;2022-11-20T03:25:07;10.23;;;3.90;;
549;SDS011;20066;48.764;9.176;2022-11-20T03:27:35;6.00;;;3.88;;
549;SDS011;20066;48.764;9.176;2022-11-20T03:30:03;5.57;;;4.20;;
549;SDS011;20066;48.764;9.176;2022-11-20T03:32:33;6.93;;;4.50;;
549;SDS011;20066;48.764;9.176;2022-11-20T03:35:01;6.25;;;4.10;;
549;SDS011;20066;48.764;9.176;2022-11-20T03:37:28;8.88;;;4.38;;
549;SDS011;20066;48.764;9.176;2022-11-20T03:39:56;11.82;;;4.63;;
549;SDS011;20066;48.764;9.176;2022-11-20T03:42:24;10.93;;;4.32;;
549;SDS011;20066;48.764;9.176;2022-11-20T03:45:09;6.93;;;3.90;;
549;SDS011;20066;48.764;9.176;2022-11-20T03:47:38;7.80;;;4.20;;
549;SDS011;20066;48.764;9.176;2022-11-20T03:50:06;7.97;;;4.03;;
549;SDS011;20066;48.764;9.176;2022-11-20T03:52:34;6.80;;;4.15;;
549;SDS011;20066;48.764;9.176;2022-11-20T03:55:02;8.48;;;4.30;;
549;SDS011;20066;48.764;9.176;2022-11-20T03:57:30;10.43;;;4.40;;
549;SDS011;20066;48.764;9.176;2022-11-20T03:59:58;9.00;;;4.75;;
549;SDS011;20066;48.764;9.176;2022-11-20T04:02:26;7.40;;;4.32;;
549;SDS011;20066;48.764;9.176;2022-11-20T04:04:55;8.57;;;4.43;;
549;SDS011;20066;48.764;9.176;2022-11-20T04:07:23;8.07;;;4.15;;
549;SDS011;20066;48.764;9.176;2022-11-20T04:09:50;7.32;;;4.05;;
549;SDS011;20066;48.764;9.176;2022-11-20T04:12:18;5.15;;;3.60;;
549;SDS011;20066;48.764;9.176;2022-11-20T04:14:46;6.40;;;4.20;;
549;SDS011;20066;48.764;9.176;2022-11-20T04:17:14;7.07;;;3.70;;
549;SDS011;20066;48.764;9.176;2022-11-20T04:19:41;7.53;;;3.80;;
549;SDS011;20066;48.764;9.176;2022-11-20T04:22:10;6.25;;;4.03;;
549;SDS011;20066;48.764;9.176;2022-11-20T04:24:38;8.52;;;4.47;;
549;SDS011;20066;48.764;9.176;2022-11-20T04:27:06;8.88;;;4.50;;
549;SDS011;20066;48.764;9.176;2022-11-20T04:29:33;7.45;;;4.35;;
549;SDS011;20066;48.764;9.176;2022-11-20T04:32:01;6.15;;;4.07;;
549;SDS011;20066;48.764;9.176;2022-11-20T04:34:29;8.50;;;4.18;;
549;SDS011;20066;48.764;9.176;2022-11-20T04:36:57;10.98;;;4.25;;
549;SDS011;20066;48.764;9.176;2022-11-20T04:39:26;6.38;;;4.15;;
549;SDS011;20066;48.764;9.176;2022-11-20T04:41:53;6.25;;;4.30;;
549;SDS011;20066;48.764;9.176;2022-11-20T04:44:35;6.90;;;4.00;;
549;SDS011;20066;48.764;9.176;2022-11-20T04:47:03;8.27;;;4.90;;
549;SDS011;20066;48.764;9.176;2022-11-20T04:49:31;4.88;;;3.50;;
549;SDS011;20066;48.764;9.176;2022-11-20T04:51:58;5.93;;;3.65;;
549;SDS011;20066;48.764;9.176;2022-11-20T04:54:27;6.43;;;3.90;;
549;SDS011;20066;48.764;9.176;2022-11-20T04:56:55;7.72;;;4.13;;
549;SDS011;20066;48.764;9.176;2022-11-20T04:59:23;6.13;;;4.05;;
549;SDS011;20066;48.764;9.176;2022-11-20T05:01:51;6.90;;;3.70;;
549;SDS011;20066;48.764;9.176;2022-11-20T05:04:19;5.65;;;3.92;;
549;SDS011;20066;48.764;9.176;2022-11-20T05:06:46;7.00;;;3.67;;
549;SDS011;20066;48.764;9.176;2022-11-20T05:09:14;7.00;;;3.88;;
549;SDS011;20066;48.764;9.176;2022-11-20T05:11:43;6.22;;;3.78;;
549;SDS011;20066;48.764;9.176;2022-11-20T05:14:16;6.65;;;4.13;;
549;SDS011;20066;48.764;9.176;2022-11-20T05:16:44;7.50;;;4.05;;
549;SDS011;20066;48.764;9.176;2022-11-20T05:19:12;7.20;;;3.95;;
549;SDS011;20066;48.764;9.176;2022-11-20T05:21:40;7.57;;;4.22;;
549;SDS011;20066;48.764;9.176;2022-11-20T05:24:08;6.70;;;3.80;;
549;SDS011;20066;48.764;9.176;2022-11-20T05:26:35;6.45;;;3.65;;
549;SDS011;20066;48.764;9.176;2022-11-20T05:29:05;6.65;;;3.35;;
549;SDS011;20066;48.764;9.176;2022-11-20T05:31:32;8.07;;;3.75;;
549;SDS011;20066;48.764;9.176;2022-11-20T05:34:00;6.80;;;3.70;;
549;SDS011;20066;48.764;9.176;2022-11-20T05:36:32;6.32;;;3.67;;
549;SDS011;20066;48.764;9.176;2022-11-20T05:39:00;8.40;;;3.80;;
549;SDS011;20066;48.764;9.176;2022-11-20T05:41:28;5.53;;;3.38;;
549;SDS011;20066;48.764;9.176;2022-11-20T05:43:56;6.55;;;3.88;;
549;SDS011;20066;48.764;9.176;2022-11-20T05:46:26;6.75;;;3.60;;
549;SDS011;20066;48.764;9.176;2022-11-20T05:48:55;6.80;;;3.33;;
549;SDS011;20066;48.764;9.176;2022-11-20T05:51:23;7.40;;;3.65;;
549;SDS011;20066;48.764;9.176;2022-11-20T05:53:52;7.60;;;3.70;;
549;SDS011;20066;48.764;9.176;2022-11-20T05:56:20;8.77;;;3.75;;
549;SDS011;20066;48.764;9.176;2022-11-20T05:58:48;4.63;;;3.00;;
549;SDS011;20066;48.764;9.176;2022-11-20T06:01:17;6.97;;;3.40;;
549;SDS011;20066;48.764;9.176;2022-11-20T06:03:47;12.70;;;3.25;;
549;SDS011;20066;48.764;9.176;2022-11-20T06:06:18;6.78;;;3.88;;
549;SDS011;20066;48.764;9.176;2022-11-20T06:08:47;5.93;;;3.20;;
549;SDS011;20066;48.764;9.176;2022-11-20T06:11:15;5.60;;;3.55;;
549;SDS011;20066;48.764;9.176;2022-11-20T06:13:44;4.35;;;2.95;;
549;SDS011;20066;48.764;9.176;2022-11-20T06:16:13;13.10;;;5.22;;
549;SDS011;20066;48.764;9.176;2022-11-20T06:18:42;7.60;;;4.40;;
549;SDS011;20066;48.764;9.176;2022-11-20T06:21:12;9.68;;;4.68;;
549;SDS011;20066;48.764;9.176;2022-11-20T06:23:41;5.22;;;3.70;;
549;SDS011;20066;48.764;9.176;2022-11-20T06:26:12;6.30;;;3.20;;
549;SDS011;20066;48.764;9.176;2022-11-20T06:28:40;6.30;;;3.58;;
549;SDS011;20066;48.764;9.176;2022-11-20T06:31:10;5.82;;;3.35;;
549;SDS011;20066;48.764;9.176;2022-11-20T06:33:38;7.22;;;3.35;;
549;SDS011;20066;48.764;9.176;2022-11-20T06:36:07;6.50;;;3.53;;
549;SDS011;20066;48.764;9.176;2022-11-20T06:38:38;5.93;;;3.15;;
549;SDS011;20066;48.764;9.176;2022-11-20T06:41:07;4.72;;;2.60;;
549;SDS011;20066;48.764;9.176;2022-11-20T06:43:38;4.35;;;2.70;;
549;SDS011;20066;48.764;9.176;2022-11-20T06:46:05;3.30;;;2.40;;
549;SDS011;20066;48.764;9.176;2022-11-20T06:48:34;6.55;;;2.90;;
549;SDS011;20066;48.764;9.176;2022-11-20T06:51:02;4.10;;;2.20;;
549;SDS011;20066;48.764;9.176;2022-11-20T06:53:31;4.63;;;2.80;;
549;SDS011;20066;48.764;9.176;2022-11-20T06:56:00;10.38;;;3.10;;
549;SDS011;20066;48.764;9.176;2022-11-20T06:58:28;6.30;;;2.60;;
549;SDS011;20066;48.764;9.176;2022-11-20T07:00:57;4.25;;;2.70;;
549;SDS011;20066;48.764;9.176;2022-11-20T07:03:26;14.80;;;2.55;;
549;SDS011;20066;48.764;9.176;2022-11-20T07:05:54;7.15;;;3.05;;
549;SDS011;20066;48.764;9.176;2022-11-20T07:08:23;4.15;;;2.70;;
549;SDS011;20066;48.764;9.176;2022-11-20T07:10:51;6.93;;;2.53;;
549;SDS011;20066;48.764;9.176;2022-11-20T07:13:20;4.82;;;2.70;;
549;SDS011;20066;48.764;9.176;2022-11-20T07:15:48;4.13;;;2.70;;
549;SDS011;20066;48.764;9.176;2022-11-20T07:18:16;3.80;;;2.70;;
549;SDS011;20066;48.764;9.176;2022-11-20T07:20:43;4.95;;;2.70;;
549;SDS011;20066;48.764;9.176;2022-11-20T07:23:11;5.35;;;2.70;;
549;SDS011;20066;48.764;9.176;2022-11-20T07:25:39;5.45;;;2.90;;
549;SDS011;20066;48.764;9.176;2022-11-20T07:28:07;3.38;;;2.17;;
549;SDS011;20066;48.764;9.176;2022-11-20T07:30:38;5.40;;;2.60;;
549;SDS011;20066;48.764;9.176;2022-11-20T07:33:05;3.90;;;2.53;;
549;SDS011;20066;48.764;9.176;2022-11-20T07:35:33;4.82;;;2.30;;
549;SDS011;20066;48.764;9.176;2022-11-20T07:38:02;4.88;;;2.88;;
549;SDS011;20066;48.764;9.176;2022-11-20T07:40:30;3.55;;;2.47;;
549;SDS011;20066;48.764;9.176;2022-11-20T07:42:57;3.65;;;2.28;;
549;SDS011;20066;48.764;9.176;2022-11-20T07:45:25;7.28;;;2.70;;
549;SDS011;20066;48.764;9.176;2022-11-20T07:47:54;3.47;;;2.20;;
549;SDS011;20066;48.764;9.176;2022-11-20T07:50:22;4.70;;;2.20;;
549;SDS011;20066;48.764;9.176;2022-11-20T07:52:50;5.10;;;2.65;;
549;SDS011;20066;48.764;9.176;2022-11-20T07:55:18;3.45;;;2.33;;
549;SDS011;20066;48.764;9.176;2022-11-20T07:57:46;3.97;;;2.70;;
549;SDS011;20066;48.764;9.176;2022-11-20T08:00:21;3.78;;;2.88;;
549;SDS011;20066;48.764;9.176;2022-11-20T08:02:49;3.60;;;2.30;;
549;SDS011;20066;48.764;9.176;2022-11-20T08:05:18;3.80;;;2.28;;
549;SDS011;20066;48.764;9.176;2022-11-20T08:07:46;3.60;;;2.65;;
549;SDS011;20066;48.764;9.176;2022-11-20T08:10:14;4.70;;;2.15;;
549;SDS011;20066;48.764;9.176;2022-11-20T08:12:43;3.50;;;2.35;;
549;SDS011;20066;48.764;9.176;2022-11-20T08:15:29;5.80;;;2.55;;
549;SDS011;20066;48.764;9.176;2022-11-20T08:18:01;3.85;;;2.15;;
549;SDS011;20066;48.764;9.176;2022-11-20T08:20:51;3.28;;;2.25;;
549;SDS011;20066;48.764;9.176;2022-11-20T08:23:22;4.30;;;2.00;;
549;SDS011;20066;48.764;9.176;2022-11-20T08:25:50;3.80;;;1.80;;
549;SDS011;20066;48.764;9.176;2022-11-20T08:28:18;6.30;;;3.33;;
549;SDS011;20066;48.764;9.176;2022-11-20T08:30:47;7.00;;;3.47;;
549;SDS011;20066;48.764;9.176;2022-11-20T08:33:16;5.28;;;2.58;;
549;SDS011;20066;48.764;9.176;2022-11-20T08:35:44;10.23;;;3.85;;
549;SDS011;20066;48.764;9.176;2022-11-20T08:38:13;11.52;;;4.03;;
549;SDS011;20066;48.764;9.176;2022-11-20T08:40:41;9.98;;;3.50;;
549;SDS011;20066;48.764;9.176;2022-11-20T08:43:29;8.75;;;3.45;;
549;SDS011;20066;48.764;9.176;2022-11-20T08:45:57;10.20;;;3.35;;
549;SDS011;20066;48.764;9.176;2022-11-20T08:48:24;8.40;;;2.90;;
549;SDS011;20066;48.764;9.176;2022-11-20T08:50:52;10.93;;;3.80;;
549;SDS011;20066;48.764;9.176;2022-11-20T08:53:21;7.18;;;2.85;;
549;SDS011;20066;48.764;9.176;2022-11-20T08:55:49;7.18;;;3.10;;
549;SDS011;20066;48.764;9.176;2022-11-20T08:58:17;6.13;;;2.50;;
549;SDS011;20066;48.764;9.176;2022-11-20T09:00:44;7.63;;;2.80;;
549;SDS011;20066;48.764;9.176;2022-11-20T09:03:12;3.65;;;2.10;;
549;SDS011;20066;48.764;9.176;2022-11-20T09:05:40;5.35;;;2.72;;
549;SDS011;20066;48.764;9.176;2022-11-20T09:08:08;3.88;;;2.05;;
549;SDS011;20066;48.764;9.176;2022-11-20T09:10:38;3.95;;;1.80;;
549;SDS011;20066;48.764;9.176;2022-11-20T09:13:06;2.95;;;1.48;;
549;SDS011;20066;48.764;9.176;2022-11-20T09:15:33;7.30;;;1.90;;
549;SDS011;20066;48.764;9.176;2022-11-20T09:18:02;3.30;;;1.67;;
549;SDS011;20066;48.764;9.176;2022-11-20T09:20:30;2.30;;;1.30;;
549;SDS011;20066;48.764;9.176;2022-11-20T09:22:58;2.28;;;1.33;;
549;SDS011;20066;48.764;9.176;2022-11-20T09:25:26;4.30;;;1.55;;
549;SDS011;20066;48.764;9.176;2022-11-20T09:27:58;2.35;;;1.55;;
549;SDS011;20066;48.764;9.176;2022-11-20T09:30:26;2.72;;;1.30;;
549;SDS011;20066;48.764;9.176;2022-11-20T09:32:54;5.03;;;1.20;;
549;SDS011;20066;48.764;9.176;2022-11-20T09:35:22;3.10;;;1.30;;
549;SDS011;20066;48.764;9.176;2022-11-20T09:37:50;1.70;;;1.17;;
549;SDS011;20066;48.764;9.176;2022-11-20T09:40:19;3.17;;;1.20;;
549;SDS011;20066;48.764;9.176;2022-11-20T09:42:51;1.73;;;1.13;;
549;SDS011;20066;48.764;9.176;2022-11-20T09:45:28;1.70;;;1.20;;
549;SDS011;20066;48.764;9.176;2022-11-20T09:48:10;2.17;;;1.27;;
549;SDS011;20066;48.764;9.176;2022-11-20T09:50:49;1.90;;;1.20;;
549;SDS011;20066;48.764;9.176;2022-11-20T09:53:26;2.28;;;1.20;;
549;SDS011;20066;48.764;9.176;2022-11-20T09:56:03;4.93;;;2.45;;
549;SDS011;20066;48.764;9.176;2022-11-20T09:58:33;5.75;;;1.92;;
549;SDS011;20066;48.764;9.176;2022-11-20T10:01:09;3.55;;;1.88;;
549;SDS011;20066;48.764;9.176;2022-11-20T10:03:42;3.05;;;1.50;;
549;SDS011;20066;48.764;9.176;2022-11-20T10:06:18;2.72;;;1.30;;
549;SDS011;20066;48.764;9.176;2022-11-20T10:08:54;3.13;;;1.85;;
549;SDS011;20066;48.764;9.176;2022-11-20T10:11:30;13.75;;;4.55;;
549;SDS011;20066;48.764;9.176;2022-11-20T10:14:06;6.70;;;2.40;;
549;SDS011;20066;48.764;9.176;2022-11-20T10:16:47;3.55;;;1.88;;
549;SDS011;20066;48.764;9.176;2022-11-20T10:19:41;3.75;;;1.70;;
549;SDS011;20066;48.764;9.176;2022-11-20T10:22:27;3.58;;;1.90;;
549;SDS011;20066;48.764;9.176;2022-11-20T10:25:11;3.10;;;1.33;;
549;SDS011;20066;48.764;9.176;2022-11-20T10:30:46;4.05;;;2.00;;
549;SDS011;20066;48.764;9.176;2022-11-20T10:33:24;2.83;;;1.60;;
549;SDS011;20066;48.764;9.176;2022-11-20T10:36:15;2.17;;;1.30;;
549;SDS011;20066;48.764;9.176;2022-11-20T10:38:49;4.50;;;1.83;;
549;SDS011;20066;48.764;9.176;2022-11-20T10:41:24;4.90;;;1.80;;
549;SDS011;20066;48.764;9.176;2022-11-20T10:44:02;7.30;;;2.17;;
549;SDS011;20066;48.764;9.176;2022-11-20T10:46:34;2.60;;;1.67;;
549;SDS011;20066;48.764;9.176;2022-11-20T10:49:12;1.67;;;1.00;;
549;SDS011;20066;48.764;9.176;2022-11-20T10:51:45;3.90;;;1.40;;
549;SDS011;20066;48.764;9.176;2022-11-20T10:54:22;5.47;;;1.80;;
549;SDS011;20066;48.764;9.176;2022-11-20T10:57:00;2.72;;;1.30;;
549;SDS011;20066;48.764;9.176;2022-11-20T10:59:50;3.25;;;1.25;;
549;SDS011;20066;48.764;9.176;2022-11-20T11:02:31;2.90;;;1.50;;
549;SDS011;20066;48.764;9.176;2022-11-20T11:05:04;3.85;;;1.77;;
549;SDS011;20066;48.764;9.176;2022-11-20T11:07:41;2.88;;;1.63;;
549;SDS011;20066;48.764;9.176;2022-11-20T11:12:43;3.63;;;1.75;;
549;SDS011;20066;48.764;9.176;2022-11-20T11:15:14;3.00;;;1.90;;
549;SDS011;20066;48.764;9.176;2022-11-20T11:17:52;5.05;;;2.22;;
549;SDS011;20066;48.764;9.176;2022-11-20T11:20:22;7.20;;;2.40;;
549;SDS011;20066;48.764;9.176;2022-11-20T11:22:51;5.30;;;2.38;;
549;SDS011;20066;48.764;9.176;2022-11-20T11:25:25;5.70;;;2.85;;
549;SDS011;20066;48.764;9.176;2022-11-20T11:27:56;4.40;;;2.20;;
549;SDS011;20066;48.764;9.176;2022-11-20T11:30:26;3.80;;;1.67;;
549;SDS011;20066;48.764;9.176;2022-11-20T11:33:02;2.78;;;1.90;;
549;SDS011;20066;48.764;9.176;2022-11-20T11:35:38;3.45;;;1.70;;
549;SDS011;20066;48.764;9.176;2022-11-20T11:38:17;4.25;;;1.50;;
549;SDS011;20066;48.764;9.176;2022-11-20T11:40:48;3.47;;;1.80;;
549;SDS011;20066;48.764;9.176;2022-11-20T11:43:17;3.78;;;2.00;;
549;SDS011;20066;48.764;9.176;2022-11-20T11:46:06;2.03;;;1.30;;
549;SDS011;20066;48.764;9.176;2022-11-20T11:48:54;4.28;;;1.50;;
549;SDS011;20066;48.764;9.176;2022-11-20T11:51:26;3.40;;;1.67;;
549;SDS011;20066;48.764;9.176;2022-11-20T11:53:58;2.65;;;1.52;;
549;SDS011;20066;48.764;9.176;2022-11-20T11:56:27;4.25;;;2.00;;
549;SDS011;20066;48.764;9.176;2022-11-20T11:58:56;3.08;;;1.30;;
549;SDS011;20066;48.764;9.176;2022-11-20T12:01:29;4.65;;;1.90;;
549;SDS011;20066;48.764;9.176;2022-11-20T12:04:03;3.65;;;1.92;;
549;SDS011;20066;48.764;9.176;2022-11-20T12:06:36;3.70;;;1.50;;
549;SDS011;20066;48.764;9.176;2022-11-20T12:09:08;4.30;;;1.90;;
549;SDS011;20066;48.764;9.176;2022-11-20T12:11:38;4.78;;;1.70;;
549;SDS011;20066;48.764;9.176;2022-11-20T12:14:14;5.95;;;1.63;;
549;SDS011;20066;48.764;9.176;2022-11-20T12:16:45;3.10;;;1.50;;
549;SDS011;20066;48.764;9.176;2022-11-20T12:19:13;5.18;;;1.95;;
549;SDS011;20066;48.764;9.176;2022-11-20T12:21:46;3.80;;;1.90;;
549;SDS011;20066;48.764;9.176;2022-11-20T12:24:32;6.20;;;2.30;;
549;SDS011;20066;48.764;9.176;2022-11-20T12:27:28;6.90;;;2.60;;
549;SDS011;20066;48.764;9.176;2022-11-20T12:30:11;6.43;;;2.97;;
549;SDS011;20066;48.764;9.176;2022-11-20T12:35:39;5.15;;;1.98;;
549;SDS011;20066;48.764;9.176;2022-11-20T12:38:30;2.70;;;1.30;;
549;SDS011;20066;48.764;9.176;2022-11-20T12:41:10;6.15;;;2.17;;
549;SDS011;20066;48.764;9.176;2022-11-20T12:44:06;9.75;;;3.45;;
549;SDS011;20066;48.764;9.176;2022-11-20T12:47:07;5.10;;;2.35;;
549;SDS011;20066;48.764;9.176;2022-11-20T12:49:47;8.82;;;3.50;;
549;SDS011;20066;48.764;9.176;2022-11-20T12:52:30;5.32;;;2.30;;
549;SDS011;20066;48.764;9.176;2022-11-20T12:55:25;9.98;;;3.47;;
549;SDS011;20066;48.764;9.176;2022-11-20T12:58:01;7.07;;;2.78;;
549;SDS011;20066;48.764;9.176;2022-11-20T13:00:35;5.90;;;2.35;;
549;SDS011;20066;48.764;9.176;2022-11-20T13:03:16;4.75;;;2.08;;
549;SDS011;20066;48.764;9.176;2022-11-20T13:06:03;5.15;;;2.00;;
549;SDS011;20066;48.764;9.176;2022-11-20T13:08:38;7.20;;;2.85;;
549;SDS011;20066;48.764;9.176;2022-11-20T13:11:12;7.00;;;2.95;;
549;SDS011;20066;48.764;9.176;2022-11-20T13:13:47;6.20;;;1.70;;
549;SDS011;20066;48.764;9.176;2022-11-20T13:16:34;7.95;;;1.95;;
549;SDS011;20066;48.764;9.176;2022-11-20T13:19:08;4.63;;;1.42;;
549;SDS011;20066;48.764;9.176;2022-11-20T13:21:39;3.65;;;1.92;;
549;SDS011;20066;48.764;9.176;2022-11-20T13:24:20;4.68;;;2.30;;
549;SDS011;20066;48.764;9.176;2022-11-20T13:27:17;5.63;;;2.13;;
549;SDS011;20066;48.764;9.176;2022-11-20T13:29:47;14.20;;;3.38;;
549;SDS011;20066;48.764;9.176;2022-11-20T13:32:27;2.55;;;1.40;;
549;SDS011;20066;48.764;9.176;2022-11-20T13:34:59;7.68;;;2.28;;
549;SDS011;20066;48.764;9.176;2022-11-20T13:37:28;16.85;;;3.75;;
549;SDS011;20066;48.764;9.176;2022-11-20T13:40:05;12.73;;;3.25;;
549;SDS011;20066;48.764;9.176;2022-11-20T13:42:43;13.48;;;3.38;;
549;SDS011;20066;48.764;9.176;2022-11-20T13:45:21;16.15;;;3.95;;
549;SDS011;20066;48.764;9.176;2022-11-20T13:47:51;10.30;;;2.72;;
549;SDS011;20066;48.764;9.176;2022-11-20T13:50:21;13.13;;;3.35;;
549;SDS011;20066;48.764;9.176;2022-11-20T13:53:00;14.13;;;4.30;;
549;SDS011;20066;48.764;9.176;2022-11-20T13:55:42;3.90;;;2.20;;
549;SDS011;20066;48.764;9.176;2022-11-20T14:01:14;11.88;;;3.10;;
549;SDS011;20066;48.764;9.176;2022-11-20T14:03:44;14.90;;;3.08;;
549;SDS011;20066;48.764;9.176;2022-11-20T14:06:32;6.55;;;2.33;;
549;SDS011;20066;48.764;9.176;2022-11-20T14:09:10;9.60;;;2.70;;
549;SDS011;20066;48.764;9.176;2022-11-20T14:11:45;11.95;;;3.72;;
549;SDS011;20066;48.764;9.176;2022-11-20T14:14:16;16.20;;;5.28;;
549;SDS011;20066;48.764;9.176;2022-11-20T14:16:46;8.07;;;2.60;;
549;SDS011;20066;48.764;9.176;2022-11-20T14:19:20;9.52;;;2.92;;
549;SDS011;20066;48.764;9.176;2022-11-20T14:22:06;15.07;;;4.65;;
549;SDS011;20066;48.764;9.176;2022-11-20T14:24:35;3.40;;;1.77;;
549;SDS011;20066;48.764;9.176;2022-11-20T14:27:03;3.97;;;1.92;;
549;SDS011;20066;48.764;9.176;2022-11-20T14:29:35;2.90;;;1.90;;
549;SDS011;20066;48.764;9.176;2022-11-20T14:32:04;9.30;;;2.60;;
549;SDS011;20066;48.764;9.176;2022-11-20T14:34:33;7.43;;;2.63;;
549;SDS011;20066;48.764;9.176;2022-11-20T14:37:10;7.47;;;2.17;;
549;SDS011;20066;48.764;9.176;2022-11-20T14:39:46;7.85;;;2.38;;
549;SDS011;20066;48.764;9.176;2022-11-20T14:42:17;5.63;;;2.35;;
549;SDS011;20066;48.764;9.176;2022-11-20T14:44:47;5.88;;;1.52;;
549;SDS011;20066;48.764;9.176;2022-11-20T14:47:18;3.60;;;1.75;;
549;SDS011;20066;48.764;9.176;2022-11-20T14:49:48;3.75;;;1.83;;
549;SDS011;20066;48.764;9.176;2022-11-20T14:52:18;3.58;;;1.65;;
549;SDS011;20066;48.764;9.176;2022-11-20T14:54:48;7.38;;;2.42;;
549;SDS011;20066;48.764;9.176;2022-11-20T14:57:21;9.18;;;3.00;;
549;SDS011;20066;48.764;9.176;2022-11-20T15:00:02;8.00;;;2.47;;
549;SDS011;20066;48.764;9.176;2022-11-20T15:02:38;3.55;;;1.55;;
549;SDS011;20066;48.764;9.176;2022-11-20T15:05:07;3.35;;;1.70;;
549;SDS011;20066;48.764;9.176;2022-11-20T15:07:36;8.55;;;2.90;;
549;SDS011;20066;48.764;9.176;2022-11-20T15:10:07;6.45;;;2.13;;
549;SDS011;20066;48.764;9.176;2022-11-20T15:12:38;6.95;;;2.67;;
549;SDS011;20066;48.764;9.176;2022-11-20T15:15:17;6.97;;;2.40;;
549;SDS011;20066;48.764;9.176;2022-11-20T15:17:49;5.70;;;1.90;;
549;SDS011;20066;48.764;9.176;2022-11-20T15:20:16;4.22;;;2.78;;
549;SDS011;20066;48.764;9.176;2022-11-20T15:22:45;4.38;;;2.40;;
549;SDS011;20066;48.764;9.176;2022-11-20T15:25:13;4.53;;;2.17;;
549;SDS011;20066;48.764;9.176;2022-11-20T15:27:42;3.10;;;1.90;;
549;SDS011;20066;48.764;9.176;2022-11-20T15:30:14;8.13;;;1.95;;
549;SDS011;20066;48.764;9.176;2022-11-20T15:32:45;5.20;;;2.25;;
549;SDS011;20066;48.764;9.176;2022-11-20T15:35:13;5.10;;;1.75;;
549;SDS011;20066;48.764;9.176;2022-11-20T15:37:42;2.83;;;2.10;;
549;SDS011;20066;48.764;9.176;2022-11-20T15:40:10;3.88;;;1.80;;
549;SDS011;20066;48.764;9.176;2022-11-20T15:42:38;4.32;;;1.85;;
549;SDS011;20066;48.764;9.176;2022-11-20T15:45:27;3.47;;;1.90;;
549;SDS011;20066;48.764;9.176;2022-11-20T15:47:56;7.10;;;2.42;;
549;SDS011;20066;48.764;9.176;2022-11-20T15:50:25;5.50;;;2.42;;
549;SDS011;20066;48.764;9.176;2022-11-20T15:52:57;6.70;;;1.70;;